14 Oct 2019 23:20 UTC 2019287+23:20 UTC

Overview Datums Bench Marks Data Query Site Visit Daily QC Messages Attributes

043: Nueces Delta 3

27° 53' 1" N   97° 31' 59" W
NUDE3
The Coastal Bend Bays & Estuaries Program Coastal Bend Bays and Estuaries Program

Station Information

Nueces Delta 3
Nueces Delta 3
more pictures
 
Station Name:Nueces Delta 3
DNR ID:043
Location:27° 53' 1" N, 97° 31' 59" W

Water Level Forecasts

Latest Observations

Series Metric English Marine Observed at
Water Temperature 26.8 °C 80.2 °F 80.2 °F Oct 14 18:12 CDT
00h06m ago
Salinity 20.000 psu 20.000 psu 20.000 psu Oct 14 18:12 CDT
00h06m ago

Maps

Nueces Delta 3
All Stations in Area
Entire Network
 

Recent Observations

Date/Time Water
Temp (°F)
Sal (psu)
Oct 14 18:00 CDT 80.2 20.000
Oct 14 17:00 CDT 80.6 18.400
Oct 14 16:00 CDT 79.9 16.900
Oct 14 15:00 CDT 79.2 17.600
Oct 14 14:00 CDT 78.3 18.600
Oct 14 13:00 CDT 76.5 20.000
Oct 14 12:00 CDT 74.7 20.500
Oct 14 11:00 CDT 72.5 23.000
Oct 14 10:00 CDT 72.1 23.100
Oct 14 09:00 CDT 71.8 23.800
Oct 14 08:00 CDT 71.8 24.500
Oct 14 07:00 CDT 71.8 24.300
Oct 14 06:00 CDT 71.8 24.400
Oct 14 05:00 CDT 71.6 23.300
Oct 14 04:00 CDT 71.6 23.900
Oct 14 03:00 CDT 71.6 24.200
Oct 14 02:00 CDT 71.6 24.000
Oct 14 01:00 CDT 71.6 23.500
Oct 14 00:00 CDT 71.4 23.100
Oct 13 23:00 CDT 71.4 23.200
Oct 13 22:00 CDT 71.2 22.200
Oct 13 21:00 CDT 70.2 18.900
Oct 13 20:00 CDT 70.3 16.300
Oct 13 19:00 CDT 70.5 14.500
Oct 13 18:00 CDT 70.3 14.400

Historical Data Availability